Auburn, New Hampshire
Current Conditions -  °F | °C
As of 6:53 PM on Monday 24 Nov 2014 (Local Time) from KMHT Reporting Station
Few Clouds Few Clouds  
Wind Chill: 62°   Ceiling: Unl
Heat Index: 62°   Visibility: 10mi
Dew Point: 55°   Wind: 13mph
Humidity: 78%   Direction: 180°S
Pressure: 29.56"   Gusts: NA
Location:  43°N, 71.35°W
Report Text: KMHT 242353Z 18011KT 10SM FEW033 17/13 A2956 RMK AO2 SLP024 T01670128 10194 20167 53017
Loading
Personal Weather Stations






























Interactive Weather Map New forecast layout! Learn more

10-Day Weather Forecast

Advertisements
Track Severe Weather on mobile